East River — WDB4477 — position and weather

sailwx.info

Track history (hours):
 
Tides and Currents Weather Stations Pressure Air Temp Water Temp Dewpoint Dewpoint Depression Visibility Wind Speed Wind Dir Waves Ship Positions

East River

Owner: Great Lakes Dredge & Dock Company, Oak Brook, IL. More information available from US FCC via Universal Licensing System and Coast Guard Vessel Documentation Center.

Last reported at 2017-Oct-04 19:57 UTC. Time now 2017-Oct-17 22:31 UTC.
Position N 46°11' W 123°52'.
Warning: this ship's position is 13 days out of date.

MMSI: 366898790.

Date/timePositionNaut miles runAvg speedWind from/ knotsBaromVisibWave heightAir tempDewpointWater temp
2017-Oct-04 19:57N 46°11' W 123°52'4 8.7
2017-Oct-04 19:31N 46°12' W 123°57'0 0.0
2017-Oct-04 19:01N 46°12' W 123°57'0 0.0
2017-Oct-04 18:31N 46°12' W 123°57'0 0.0
2017-Oct-04 18:00N 46°12' W 123°57'0 0.0
2017-Oct-04 17:31N 46°12' W 123°57'0 0.0
2017-Oct-04 17:01N 46°12' W 123°57'0 0.0
2017-Oct-04 16:30N 46°12' W 123°57'0 0.0
2017-Oct-04 16:00N 46°12' W 123°57'0 0.0
2017-Oct-04 15:31N 46°12' W 123°57'0 0.0
2017-Oct-04 15:01N 46°12' W 123°57'0 0.0
2017-Oct-04 14:31N 46°12' W 123°57'0 0.0
2017-Oct-04 14:01N 46°12' W 123°57'0 0.0
2017-Oct-04 13:31N 46°12' W 123°57'0 0.0
2017-Oct-04 13:01N 46°12' W 123°57'0 0.0
2017-Oct-04 12:30N 46°12' W 123°57'0 0.0
2017-Oct-04 11:57N 46°12' W 123°57'0 0.0
2017-Oct-04 11:31N 46°12' W 123°57'0 0.0
2017-Oct-04 11:01N 46°12' W 123°57'0 0.0
2017-Oct-04 10:31N 46°12' W 123°57'0 0.0
2017-Oct-04 10:01N 46°12' W 123°57'0 0.0
2017-Oct-04 09:30N 46°12' W 123°57'0 0.0
2017-Oct-04 09:01N 46°12' W 123°57'0 0.0
2017-Oct-04 08:31N 46°12' W 123°57'0 0.0
2017-Oct-04 08:01N 46°12' W 123°57'0 0.0
2017-Oct-04 07:15N 46°12' W 123°57'0 0.0
2017-Oct-04 07:00N 46°12' W 123°57'0 0.0
2017-Oct-04 06:31N 46°12' W 123°57'0 0.0
2017-Oct-04 06:00N 46°12' W 123°57'0 0.0
2017-Oct-04 05:31N 46°12' W 123°57'0 0.0
2017-Oct-04 05:01N 46°12' W 123°57'0 0.0
2017-Oct-04 04:30N 46°12' W 123°57'0 0.0
2017-Oct-04 03:28N 46°12' W 123°57'0 0.0
2017-Oct-04 03:00N 46°12' W 123°57'0 0.0
2017-Oct-04 02:31N 46°12' W 123°57'611.9
2017-Oct-04 02:01N 46°12' W 123°48'611.1
2017-Oct-04 01:31N 46°12' W 123°56'0 0.8
2017-Oct-04 01:01N 46°12' W 123°57'0 0.0
2017-Oct-04 00:31N 46°12' W 123°57'4 7.6
2017-Oct-04 00:01N 46°12' W 123°52'2 4.4
2017-Oct-03 23:30N 46°12' W 123°48'0 0.9
2017-Oct-03 23:00N 46°12' W 123°49'2 2.8
2017-Oct-03 22:23N 46°11' W 123°52'0 0.0
2017-Oct-03 22:01N 46°11' W 123°52'0 0.3
2017-Oct-03 21:30N 46°11' W 123°51'1 2.3
2017-Oct-03 21:01N 46°12' W 123°50'1 2.6
2017-Oct-03 20:30N 46°11' W 123°52'0 0.3
2017-Oct-03 20:00N 46°11' W 123°52'2 4.6
2017-Oct-03 19:30N 46°12' W 123°48'0 0.0
2017-Oct-03 19:00N 46°12' W 123°48'2 4.8
2017-Oct-03 18:30N 46°11' W 123°52'0 0.0
2017-Oct-03 18:00N 46°11' W 123°52'4 7.8
2017-Oct-03 17:31N 46°12' W 123°57'0 0.0
2017-Oct-03 17:00N 46°12' W 123°57'0 0.0
2017-Oct-03 16:31N 46°12' W 123°57'0 0.0
2017-Oct-03 16:00N 46°12' W 123°57'0 0.0
2017-Oct-03 15:29N 46°12' W 123°57'0 0.0
2017-Oct-03 15:01N 46°12' W 123°57'0 0.0
2017-Oct-03 14:00N 46°12' W 123°57'0 0.0
2017-Oct-03 13:30N 46°12' W 123°57'0 0.0
2017-Oct-03 13:01N 46°12' W 123°57'0 0.0
2017-Oct-03 12:31N 46°12' W 123°57'0 0.0
2017-Oct-03 12:00N 46°12' W 123°57'0 0.0
2017-Oct-03 11:31N 46°12' W 123°57'0 0.0
2017-Oct-03 11:00N 46°12' W 123°57'0 0.0
2017-Oct-03 10:30N 46°12' W 123°57'0 0.0
2017-Oct-03 10:01N 46°12' W 123°57'0 0.0
2017-Oct-03 09:30N 46°12' W 123°57'0 0.0
2017-Oct-03 09:01N 46°12' W 123°57'0 0.0
2017-Oct-03 08:30N 46°12' W 123°57'0 0.0
2017-Oct-03 08:00N 46°12' W 123°57'0 0.0
2017-Oct-03 07:31N 46°12' W 123°57'0 0.0
2017-Oct-03 07:00N 46°12' W 123°57'0 0.0
2017-Oct-03 06:30N 46°12' W 123°57'0 0.0
2017-Oct-03 06:00N 46°12' W 123°57'0 0.0
2017-Oct-03 05:31N 46°12' W 123°57'0 0.0
2017-Oct-03 05:01N 46°12' W 123°57'0 0.0
2017-Oct-03 04:31N 46°12' W 123°57'0 0.0
2017-Oct-03 04:01N 46°12' W 123°57'0 0.0
2017-Oct-03 03:30N 46°12' W 123°57'0 0.0
2017-Oct-03 03:00N 46°12' W 123°57'0 0.0
2017-Oct-03 02:30N 46°12' W 123°57'0 0.0
2017-Oct-03 02:00N 46°12' W 123°57'0 0.0
2017-Oct-03 01:23N 46°12' W 123°57'0 0.0
2017-Oct-03 01:00N 46°12' W 123°57'0 0.0
2017-Oct-03 00:31N 46°12' W 123°57'0 0.0
2017-Oct-03 00:01N 46°12' W 123°57'0 0.0
2017-Oct-02 23:31N 46°12' W 123°57'0 0.0
2017-Oct-02 23:01N 46°12' W 123°57'1 3.0
2017-Oct-02 22:31N 46°12' W 123°55'4 9.0
2017-Oct-02 22:00N 46°12' W 123°48'0 0.0
2017-Oct-02 21:30N 46°12' W 123°48'2 4.5
2017-Oct-02 21:01N 46°11' W 123°52'0 0.0
2017-Oct-02 20:31N 46°11' W 123°52'2 4.7
2017-Oct-02 20:01N 46°12' W 123°48'0 0.1
2017-Oct-02 19:31N 46°12' W 123°48'0 0.0
2017-Oct-02 19:00N 46°12' W 123°48'2 4.4
2017-Oct-02 18:30N 46°11' W 123°51'0 0.4
2017-Oct-02 18:01N 46°11' W 123°52'4 7.7
2017-Oct-02 17:30N 46°12' W 123°57'0 0.0
2017-Oct-02 17:00N 46°12' W 123°57'612.1
2017-Oct-02 16:30N 46°12' W 123°48'2 4.8
2017-Oct-02 16:00N 46°11' W 123°52'4 7.7
2017-Oct-02 15:30N 46°12' W 123°57'0 0.0
2017-Oct-02 15:00N 46°12' W 123°57'0 0.0
2017-Oct-02 14:30N 46°12' W 123°57'0 0.0
2017-Oct-02 13:39N 46°12' W 123°57'0 0.0
2017-Oct-02 13:30N 46°12' W 123°57'0 0.0
2017-Oct-02 13:00N 46°12' W 123°57'0 0.0
2017-Oct-02 12:30N 46°12' W 123°57'0 0.0
2017-Oct-02 12:00N 46°12' W 123°57'0 0.0
2017-Oct-02 11:30N 46°12' W 123°57'0 0.0
2017-Oct-02 11:00N 46°12' W 123°57'0 0.0
2017-Oct-02 10:30N 46°12' W 123°57'0 0.0
2017-Oct-02 10:00N 46°12' W 123°57'0 0.0
2017-Oct-02 09:30N 46°12' W 123°57'0 0.0
2017-Oct-02 09:00N 46°12' W 123°57'0 0.0
2017-Oct-02 08:30N 46°12' W 123°57'0 0.0
2017-Oct-02 08:01N 46°12' W 123°57'0 0.0
2017-Oct-02 07:30N 46°12' W 123°57'0 0.0
2017-Oct-02 07:00N 46°12' W 123°57'0 0.0
2017-Oct-02 06:30N 46°12' W 123°57'0 0.0
2017-Oct-02 06:00N 46°12' W 123°57'0 0.0
2017-Oct-02 05:30N 46°12' W 123°57'0 0.0
2017-Oct-02 04:56N 46°12' W 123°57'0 0.0
2017-Oct-02 04:30N 46°12' W 123°57'0 0.0
2017-Oct-02 04:01N 46°12' W 123°57'0 0.0
2017-Oct-02 03:30N 46°12' W 123°57'0 0.0
2017-Oct-02 03:00N 46°12' W 123°57'0 0.0
2017-Oct-02 02:30N 46°12' W 123°57'0 0.0
2017-Oct-02 02:00N 46°12' W 123°57'0 0.0
2017-Oct-02 01:30N 46°12' W 123°57'0 0.0
2017-Oct-02 01:01N 46°12' W 123°57'0 0.0
2017-Oct-02 00:31N 46°12' W 123°57'0 0.0
2017-Oct-02 00:00N 46°12' W 123°57'0 0.0
2017-Oct-01 23:30N 46°12' W 123°57'0 0.0
2017-Oct-01 23:00N 46°12' W 123°57'0 0.0
2017-Oct-01 22:30N 46°12' W 123°57'0 0.0
2017-Oct-01 21:26N 46°12' W 123°57'0 0.0
2017-Oct-01 21:01N 46°12' W 123°57'0 0.0
2017-Oct-01 20:31N 46°12' W 123°57'0 0.0
2017-Oct-01 20:00N 46°12' W 123°57'0 0.0
2017-Oct-01 19:31N 46°12' W 123°57'0 0.0
2017-Oct-01 19:01N 46°12' W 123°57'0 0.0
2017-Oct-01 18:31N 46°12' W 123°57'0 0.0
2017-Oct-01 18:01N 46°12' W 123°57'0 0.0
2017-Oct-01 17:31N 46°12' W 123°57'0 0.0
2017-Oct-01 17:01N 46°12' W 123°57'0 0.0
2017-Oct-01 16:28N 46°12' W 123°57'0 0.0
2017-Oct-01 16:00N 46°12' W 123°57'0 0.0
2017-Oct-01 15:31N 46°12' W 123°57'0 0.0
2017-Oct-01 15:01N 46°12' W 123°57'0 0.0
2017-Oct-01 14:30N 46°12' W 123°57'0 0.0
2017-Oct-01 14:00N 46°12' W 123°57'0 0.0
2017-Oct-01 13:31N 46°12' W 123°57'0 0.0
2017-Oct-01 13:00N 46°12' W 123°57'0 0.0
2017-Oct-01 12:30N 46°12' W 123°57'0 0.0
2017-Oct-01 12:00N 46°12' W 123°57'0 0.0
2017-Oct-01 11:30N 46°12' W 123°57'0 0.0
2017-Oct-01 11:00N 46°12' W 123°57'0 0.0
2017-Oct-01 10:31N 46°12' W 123°57'0 0.0
2017-Oct-01 10:00N 46°12' W 123°57'0 0.0
2017-Oct-01 09:30N 46°12' W 123°57'0 0.0
2017-Oct-01 09:01N 46°12' W 123°57'0 0.0
2017-Oct-01 08:30N 46°12' W 123°57'0 0.0
2017-Oct-01 08:00N 46°12' W 123°57'0 0.0
2017-Oct-01 07:30N 46°12' W 123°57'0 0.0
2017-Oct-01 07:00N 46°12' W 123°57'0 0.0
2017-Oct-01 06:30N 46°12' W 123°57'0 0.0
2017-Oct-01 06:00N 46°12' W 123°57'0 0.0
2017-Oct-01 05:31N 46°12' W 123°57'0 0.0
2017-Oct-01 05:00N 46°12' W 123°57'0 0.0
2017-Oct-01 04:30N 46°12' W 123°57'0 0.0
2017-Oct-01 04:00N 46°12' W 123°57'0 0.0
2017-Oct-01 03:31N 46°12' W 123°57'0 0.0
2017-Oct-01 03:00N 46°12' W 123°57'0 0.0
2017-Sep-30 02:01N 46°12' W 123°57'0 0.0
2017-Sep-30 01:31N 46°12' W 123°57'0 0.0
2017-Sep-30 01:00N 46°12' W 123°57'0 0.0
2017-Sep-30 00:31N 46°12' W 123°57'0 0.0
2017-Sep-30 00:00N 46°12' W 123°57'0 0.0
2017-Sep-29 23:31N 46°12' W 123°57'0 0.0
2017-Sep-29 23:00N 46°12' W 123°57'0 0.0
2017-Sep-29 22:30N 46°12' W 123°57'0 0.0
2017-Sep-29 22:01N 46°12' W 123°57'0 0.0
2017-Sep-29 21:30N 46°12' W 123°57'0 0.0
2017-Sep-29 21:00N 46°12' W 123°57'0 0.0
2017-Sep-29 20:31N 46°12' W 123°57'0 0.0
2017-Sep-29 20:00N 46°12' W 123°57'0 0.0
2017-Sep-29 19:31N 46°12' W 123°57'0 0.0
2017-Sep-29 19:00N 46°12' W 123°57'0 0.0
2017-Sep-29 18:31N 46°12' W 123°57'0 0.0
2017-Sep-29 18:00N 46°12' W 123°57'0 0.0
2017-Sep-29 15:42N 46°12' W 123°57'0 0.0
2017-Sep-29 15:30N 46°12' W 123°57'0 0.0
2017-Sep-29 15:00N 46°12' W 123°57'0 0.0
2017-Sep-29 14:30N 46°12' W 123°57'0 0.0
2017-Sep-29 14:00N 46°12' W 123°57'0 0.0
2017-Sep-29 13:30N 46°12' W 123°57'0 0.0
2017-Sep-29 13:00N 46°12' W 123°57'0 0.0
2017-Sep-29 12:30N 46°12' W 123°57'0 0.0
2017-Sep-29 12:00N 46°12' W 123°57'0 0.0
2017-Sep-29 11:30N 46°12' W 123°57'0 0.0
2017-Sep-29 11:00N 46°12' W 123°57'0 0.0
2017-Sep-29 10:30N 46°12' W 123°57'0 0.0
2017-Sep-29 10:00N 46°12' W 123°57'0 0.0
2017-Sep-29 09:31N 46°12' W 123°57'0 0.0
2017-Sep-29 09:00N 46°12' W 123°57'0 0.0
2017-Sep-29 08:30N 46°12' W 123°57'0 0.0
2017-Sep-29 08:00N 46°12' W 123°57'0 0.0
2017-Sep-29 07:30N 46°12' W 123°57'0 0.0
2017-Sep-29 07:01N 46°12' W 123°57'0 0.0
2017-Sep-29 06:30N 46°12' W 123°57'0 0.0
2017-Sep-29 06:00N 46°12' W 123°57'0 0.0
2017-Sep-29 05:31N 46°12' W 123°57'0 0.0
2017-Sep-29 05:01N 46°12' W 123°57'0 0.0
2017-Sep-29 04:30N 46°12' W 123°57'0 0.0
2017-Sep-29 04:00N 46°12' W 123°57'0 0.0
2017-Sep-29 03:30N 46°12' W 123°57'0 0.0
2017-Sep-29 03:00N 46°12' W 123°57'0 0.0
2017-Sep-29 02:30N 46°12' W 123°57'0 0.0
2017-Sep-29 02:00N 46°12' W 123°57'0 0.0
2017-Sep-29 01:30N 46°12' W 123°57'611.3
2017-Sep-29 01:00N 46°16' W 124°03'1 1.6
2017-Sep-29 00:30N 46°16' W 124°04'0 0.6
2017-Sep-29 00:00N 46°16' W 124°04'1 2.3
2017-Sep-28 23:30N 46°15' W 124°06'0 0.4
2017-Sep-28 23:00N 46°16' W 124°06'2 2.0
2017-Sep-28 22:14N 46°15' W 124°08'1 4.2
2017-Sep-28 22:01N 46°15' W 124°07'4 8.7
2017-Sep-28 21:31N 46°15' W 124°00'3 6.8
2017-Sep-28 21:00N 46°12' W 123°57'4 7.8
2017-Sep-28 20:30N 46°15' W 124°00'1 2.2
2017-Sep-28 20:00N 46°16' W 124°02'3 5.9
2017-Sep-28 19:30N 46°14' W 123°58'1 2.3
2017-Sep-28 19:00N 46°13' W 123°57'4 8.9
2017-Sep-28 18:30N 46°11' W 123°52'0 0.0
2017-Sep-28 18:00N 46°11' W 123°52'0 0.4
2017-Sep-28 17:30N 46°11' W 123°51'4 7.4
2017-Sep-28 17:00N 46°13' W 123°56'714.1
2017-Sep-28 16:29N 46°16' W 124°06'0 0.7
2017-Sep-28 16:01N 46°15' W 124°06'0 0.9
2017-Sep-28 15:31N 46°15' W 124°07'1 1.7
2017-Sep-28 15:01N 46°15' W 124°06'5 9.5
2017-Sep-28 14:30N 46°14' W 123°59'2 4.8
2017-Sep-28 14:00N 46°12' W 123°57'0 0.0
2017-Sep-28 13:30N 46°12' W 123°57'0 0.0
2017-Sep-28 13:00N 46°12' W 123°57'0 0.0
2017-Sep-28 12:31N 46°12' W 123°57'0 0.0
2017-Sep-28 12:01N 46°12' W 123°57'0 0.0
2017-Sep-28 11:31N 46°12' W 123°57'0 0.0
2017-Sep-28 11:01N 46°12' W 123°57'0 0.0
2017-Sep-28 10:31N 46°12' W 123°57'0 0.0
2017-Sep-28 10:01N 46°12' W 123°57'0 0.0
2017-Sep-28 09:31N 46°12' W 123°57'0 0.0
2017-Sep-28 09:00N 46°12' W 123°57'0 0.0
2017-Sep-28 08:30N 46°12' W 123°57'0 0.0
2017-Sep-28 08:01N 46°12' W 123°57'0 0.0
2017-Sep-28 07:31N 46°12' W 123°57'0 0.0
2017-Sep-28 07:01N 46°12' W 123°57'0 0.0
2017-Sep-28 06:31N 46°12' W 123°57'0 0.0
2017-Sep-28 06:01N 46°12' W 123°57'0 0.0
2017-Sep-28 05:30N 46°12' W 123°57'0 0.0
2017-Sep-28 05:01N 46°12' W 123°57'0 0.0
2017-Sep-28 04:27N 46°12' W 123°57'0 0.0
2017-Sep-28 04:01N 46°12' W 123°57'0 0.0
2017-Sep-28 03:30N 46°12' W 123°57'0 0.0
2017-Sep-28 03:01N 46°12' W 123°57'0 0.0
2017-Sep-28 02:29N 46°12' W 123°57'0 0.0
2017-Sep-28 02:01N 46°12' W 123°57'0 0.0
2017-Sep-28 01:31N 46°12' W 123°57'0 0.0
2017-Sep-28 01:01N 46°12' W 123°57'0 0.0
2017-Sep-28 00:30N 46°12' W 123°57'0 0.0
2017-Sep-28 00:01N 46°12' W 123°57'0 0.2
2017-Sep-27 23:30N 46°12' W 123°57'611.7
2017-Sep-27 23:00N 46°15' W 124°04'611.7
2017-Sep-27 22:30N 46°12' W 123°57'0 0.0
2017-Sep-27 22:00N 46°12' W 123°57'0 0.0
2017-Sep-27 21:30N 46°12' W 123°57'0 0.0
2017-Sep-27 21:00N 46°12' W 123°57'0 0.0
2017-Sep-27 20:30N 46°12' W 123°57'510.1
2017-Sep-27 20:00N 46°15' W 124°03'1 2.6
2017-Sep-27 19:30N 46°16' W 124°04'0 0.4
2017-Sep-27 19:00N 46°16' W 124°04'0 0.8
2017-Sep-27 18:30N 46°16' W 124°04'1 1.2
2017-Sep-27 18:00N 46°15' W 124°04'1 1.0
2017-Sep-27 17:30N 46°15' W 124°05'1 2.0
2017-Sep-27 17:00N 46°15' W 124°04'0 0.3
2017-Sep-27 16:30N 46°16' W 124°04'1 0.8
2017-Sep-27 15:50N 46°15' W 124°03'0 0.9
2017-Sep-27 15:30N 46°16' W 124°03'1 2.6
2017-Sep-27 15:00N 46°15' W 124°05'2 4.6
2017-Sep-27 14:30N 46°15' W 124°02'4 8.8
2017-Sep-27 14:00N 46°12' W 123°57'0 0.0
2017-Sep-27 13:30N 46°12' W 123°57'0 0.0
2017-Sep-27 13:00N 46°12' W 123°57'0 0.0
2017-Sep-27 12:30N 46°12' W 123°57'0 0.0
2017-Sep-27 12:00N 46°12' W 123°57'0 0.0
2017-Sep-27 11:30N 46°12' W 123°57'0 0.0
2017-Sep-27 11:00N 46°12' W 123°57'0 0.0
2017-Sep-27 10:30N 46°12' W 123°57'0 0.0
2017-Sep-27 09:48N 46°12' W 123°57'0 0.0
2017-Sep-27 09:30N 46°12' W 123°57'0 0.0
2017-Sep-27 09:00N 46°12' W 123°57'0 0.0
2017-Sep-27 08:30N 46°12' W 123°57'0 0.0
2017-Sep-27 08:00N 46°12' W 123°57'0 0.0
2017-Sep-27 07:30N 46°12' W 123°57'0 0.0
2017-Sep-27 06:42N 46°12' W 123°57'0 0.0
2017-Sep-27 06:30N 46°12' W 123°57'0 0.0
2017-Sep-27 06:00N 46°12' W 123°57'0 0.0
2017-Sep-27 05:30N 46°12' W 123°57'0 0.0
2017-Sep-27 05:00N 46°12' W 123°57'0 0.0
2017-Sep-27 04:30N 46°12' W 123°57'0 0.0
2017-Sep-27 04:00N 46°12' W 123°57'0 0.0
2017-Sep-27 03:30N 46°12' W 123°57'0 0.0
2017-Sep-27 03:00N 46°12' W 123°57'0 0.0
2017-Sep-27 02:30N 46°12' W 123°57'0 0.0
2017-Sep-27 02:00N 46°12' W 123°57'0 0.0
2017-Sep-27 01:30N 46°12' W 123°57'0 0.0
2017-Sep-27 00:48N 46°12' W 123°57'0 0.0
2017-Sep-27 00:30N 46°12' W 123°57'0 0.0
2017-Sep-27 00:00N 46°12' W 123°57'0 0.0
2017-Sep-26 23:30N 46°12' W 123°57'2 2.4
2017-Sep-26 22:49N 46°14' W 123°58'413.2
2017-Sep-26 22:30N 46°15' W 124°04'3 6.7
2017-Sep-26 22:00N 46°15' W 123°59'3 5.6
2017-Sep-26 21:30N 46°12' W 123°57'0 0.0
2017-Sep-26 21:00N 46°12' W 123°57'0 0.0
2017-Sep-26 20:30N 46°12' W 123°57'0 0.0
2017-Sep-26 19:46N 46°12' W 123°57'0 0.0
2017-Sep-26 19:30N 46°12' W 123°57'0 0.0
2017-Sep-26 19:00N 46°12' W 123°57'0 0.0
2017-Sep-26 18:30N 46°12' W 123°57'1 1.1
2017-Sep-26 18:01N 46°13' W 123°57'4 7.9
2017-Sep-26 17:30N 46°15' W 124°02'4 8.9
2017-Sep-26 17:01N 46°12' W 123°57'4 8.0
2017-Sep-26 16:30N 46°11' W 123°51'0 0.0
2017-Sep-26 16:00N 46°11' W 123°51'612.0
2017-Sep-26 15:31N 46°14' W 123°59'3 5.2
2017-Sep-26 15:00N 46°15' W 124°02'5 9.9
2017-Sep-26 14:30N 46°12' W 123°57'0 0.0
2017-Sep-26 13:47N 46°12' W 123°57'0 0.0
2017-Sep-26 13:30N 46°12' W 123°57'0 0.0
2017-Sep-26 13:01N 46°12' W 123°57'0 0.0
2017-Sep-26 12:30N 46°12' W 123°57'0 0.0
2017-Sep-26 12:01N 46°12' W 123°57'0 0.0
2017-Sep-26 11:30N 46°12' W 123°57'0 0.0
2017-Sep-26 11:00N 46°12' W 123°57'0 0.0
2017-Sep-26 10:30N 46°12' W 123°57'0 0.0
2017-Sep-26 10:00N 46°12' W 123°57'0 0.0
2017-Sep-26 09:30N 46°12' W 123°57'0 0.0
2017-Sep-26 09:00N 46°12' W 123°57'0 0.0
2017-Sep-26 08:30N 46°12' W 123°57'0 0.0
2017-Sep-26 08:00N 46°12' W 123°57'0 0.0
2017-Sep-26 07:30N 46°12' W 123°57'0 0.0
2017-Sep-26 07:00N 46°12' W 123°57'0 0.0
2017-Sep-26 06:30N 46°12' W 123°57'0 0.0
2017-Sep-26 06:00N 46°12' W 123°57'0 0.0
2017-Sep-26 05:30N 46°12' W 123°57'0 0.0
2017-Sep-26 05:00N 46°12' W 123°57'0 0.0
2017-Sep-26 04:12N 46°12' W 123°57'0 0.0
2017-Sep-26 04:00N 46°12' W 123°57'0 0.0
2017-Sep-26 03:30N 46°12' W 123°57'0 0.0
2017-Sep-26 03:00N 46°12' W 123°57'0 0.0
2017-Sep-26 02:30N 46°12' W 123°57'0 0.0
2017-Sep-26 02:00N 46°12' W 123°57'0 0.0
2017-Sep-26 01:30N 46°12' W 123°57'0 0.0
2017-Sep-26 01:00N 46°12' W 123°57'0 0.0
2017-Sep-26 00:30N 46°12' W 123°57'0 0.0
2017-Sep-26 00:00N 46°12' W 123°57'0 0.0
2017-Sep-25 23:30N 46°12' W 123°57'0 0.0
2017-Sep-25 23:00N 46°12' W 123°57'0 0.0
2017-Sep-25 22:30N 46°12' W 123°57'0 0.0
2017-Sep-25 22:00N 46°12' W 123°57'0 0.0
2017-Sep-25 21:30N 46°12' W 123°57'0 0.0
2017-Sep-25 21:00N 46°12' W 123°57'611.4
2017-Sep-25 20:30N 46°16' W 124°04'3 5.3
2017-Sep-25 20:00N 46°15' W 123°60'1 2.0
2017-Sep-25 19:30N 46°15' W 123°59'3 6.1
2017-Sep-25 19:00N 46°15' W 124°03'1 1.7
2017-Sep-25 18:30N 46°16' W 124°04'0 0.3
2017-Sep-25 18:00N 46°15' W 124°04'0 0.3
2017-Sep-25 17:30N 46°15' W 124°04'1 1.4
2017-Sep-25 17:00N 46°15' W 124°05'1 2.6
2017-Sep-25 16:30N 46°15' W 124°03'0 0.3
2017-Sep-25 16:00N 46°15' W 124°03'0 0.4
2017-Sep-25 15:30N 46°16' W 124°03'0 0.4
2017-Sep-25 15:00N 46°15' W 124°03'3 6.9
2017-Sep-25 14:31N 46°14' W 123°59'2 4.1
2017-Sep-25 14:01N 46°12' W 123°57'0 0.0
2017-Sep-25 13:31N 46°12' W 123°57'0 0.0
2017-Sep-25 13:01N 46°12' W 123°57'0 0.0
2017-Sep-25 12:25N 46°12' W 123°57'0 0.0
2017-Sep-25 12:01N 46°12' W 123°57'0 0.0
2017-Sep-25 11:31N 46°12' W 123°57'0 0.0
2017-Sep-25 11:01N 46°12' W 123°57'0 0.0
2017-Sep-25 10:31N 46°12' W 123°57'0 0.0
2017-Sep-25 10:01N 46°12' W 123°57'0 0.0
2017-Sep-25 09:31N 46°12' W 123°57'0 0.0
2017-Sep-25 09:01N 46°12' W 123°57'0 0.0
2017-Sep-25 08:16N 46°12' W 123°57'0 0.0
2017-Sep-25 08:00N 46°12' W 123°57'0 0.0
2017-Sep-25 07:30N 46°12' W 123°57'0 0.0
2017-Sep-25 07:00N 46°12' W 123°57'0 0.0
2017-Sep-25 06:30N 46°12' W 123°57'0 0.0
2017-Sep-25 06:01N 46°12' W 123°57'0 0.0
2017-Sep-25 05:30N 46°12' W 123°57'0 0.0
2017-Sep-25 05:00N 46°12' W 123°57'0 0.0
2017-Sep-25 04:30N 46°12' W 123°57'0 0.0
2017-Sep-25 03:41N 46°12' W 123°57'0 0.0
2017-Sep-25 03:30N 46°12' W 123°57'0 0.0
2017-Sep-25 03:00N 46°12' W 123°57'0 0.0
2017-Sep-25 02:27N 46°12' W 123°57'0 0.0
2017-Sep-25 02:01N 46°12' W 123°57'0 0.0
2017-Sep-25 01:28N 46°12' W 123°57'0 0.0
2017-Sep-25 01:01N 46°12' W 123°57'0 0.0
2017-Sep-25 00:31N 46°12' W 123°57'0 0.0
2017-Sep-25 00:01N 46°12' W 123°57'0 0.0
2017-Sep-24 23:31N 46°12' W 123°57'0 0.0
2017-Sep-24 23:01N 46°12' W 123°57'0 0.0
2017-Sep-24 22:31N 46°12' W 123°57'0 0.0
2017-Sep-24 22:01N 46°12' W 123°57'0 0.0
2017-Sep-24 21:31N 46°12' W 123°57'0 0.0
2017-Sep-24 21:01N 46°12' W 123°57'0 0.0
2017-Sep-24 20:31N 46°12' W 123°57'0 0.0
2017-Sep-24 20:01N 46°12' W 123°57'  
Track history (hours):
 
Tides and Currents Weather Stations Pressure Air Temp Water Temp Dewpoint Dewpoint Depression Visibility Wind Speed Wind Dir Waves Ship Positions

East River

Owner: Great Lakes Dredge & Dock Company, Oak Brook, IL. More information available from US FCC via Universal Licensing System and Coast Guard Vessel Documentation Center.

Last reported at 2017-Oct-04 19:57 UTC. Time now 2017-Oct-17 22:31 UTC.
Position N 46°11' W 123°52'.
Warning: this ship's position is 13 days out of date.

MMSI: 366898790.

Date/timePositionNaut miles runAvg speedWind from/ knotsBaromVisibWave heightAir tempDewpointWater temp
2017-Oct-04 19:57N 46°11' W 123°52'4 8.7
2017-Oct-04 19:31N 46°12' W 123°57'0 0.0
2017-Oct-04 19:01N 46°12' W 123°57'0 0.0
2017-Oct-04 18:31N 46°12' W 123°57'0 0.0
2017-Oct-04 18:00N 46°12' W 123°57'0 0.0
2017-Oct-04 17:31N 46°12' W 123°57'0 0.0
2017-Oct-04 17:01N 46°12' W 123°57'0 0.0
2017-Oct-04 16:30N 46°12' W 123°57'0 0.0
2017-Oct-04 16:00N 46°12' W 123°57'0 0.0
2017-Oct-04 15:31N 46°12' W 123°57'0 0.0
2017-Oct-04 15:01N 46°12' W 123°57'0 0.0
2017-Oct-04 14:31N 46°12' W 123°57'0 0.0
2017-Oct-04 14:01N 46°12' W 123°57'0 0.0
2017-Oct-04 13:31N 46°12' W 123°57'0 0.0
2017-Oct-04 13:01N 46°12' W 123°57'0 0.0
2017-Oct-04 12:30N 46°12' W 123°57'0 0.0
2017-Oct-04 11:57N 46°12' W 123°57'0 0.0
2017-Oct-04 11:31N 46°12' W 123°57'0 0.0
2017-Oct-04 11:01N 46°12' W 123°57'0 0.0
2017-Oct-04 10:31N 46°12' W 123°57'0 0.0
2017-Oct-04 10:01N 46°12' W 123°57'0 0.0
2017-Oct-04 09:30N 46°12' W 123°57'0 0.0
2017-Oct-04 09:01N 46°12' W 123°57'0 0.0
2017-Oct-04 08:31N 46°12' W 123°57'0 0.0
2017-Oct-04 08:01N 46°12' W 123°57'0 0.0
2017-Oct-04 07:15N 46°12' W 123°57'0 0.0
2017-Oct-04 07:00N 46°12' W 123°57'0 0.0
2017-Oct-04 06:31N 46°12' W 123°57'0 0.0
2017-Oct-04 06:00N 46°12' W 123°57'0 0.0
2017-Oct-04 05:31N 46°12' W 123°57'0 0.0
2017-Oct-04 05:01N 46°12' W 123°57'0 0.0
2017-Oct-04 04:30N 46°12' W 123°57'0 0.0
2017-Oct-04 03:28N 46°12' W 123°57'0 0.0
2017-Oct-04 03:00N 46°12' W 123°57'0 0.0
2017-Oct-04 02:31N 46°12' W 123°57'611.9
2017-Oct-04 02:01N 46°12' W 123°48'611.1
2017-Oct-04 01:31N 46°12' W 123°56'0 0.8
2017-Oct-04 01:01N 46°12' W 123°57'0 0.0
2017-Oct-04 00:31N 46°12' W 123°57'4 7.6
2017-Oct-04 00:01N 46°12' W 123°52'2 4.4
2017-Oct-03 23:30N 46°12' W 123°48'0 0.9
2017-Oct-03 23:00N 46°12' W 123°49'2 2.8
2017-Oct-03 22:23N 46°11' W 123°52'0 0.0
2017-Oct-03 22:01N 46°11' W 123°52'0 0.3
2017-Oct-03 21:30N 46°11' W 123°51'1 2.3
2017-Oct-03 21:01N 46°12' W 123°50'1 2.6
2017-Oct-03 20:30N 46°11' W 123°52'0 0.3
2017-Oct-03 20:00N 46°11' W 123°52'2 4.6
2017-Oct-03 19:30N 46°12' W 123°48'0 0.0
2017-Oct-03 19:00N 46°12' W 123°48'2 4.8
2017-Oct-03 18:30N 46°11' W 123°52'0 0.0
2017-Oct-03 18:00N 46°11' W 123°52'4 7.8
2017-Oct-03 17:31N 46°12' W 123°57'0 0.0
2017-Oct-03 17:00N 46°12' W 123°57'0 0.0
2017-Oct-03 16:31N 46°12' W 123°57'0 0.0
2017-Oct-03 16:00N 46°12' W 123°57'0 0.0
2017-Oct-03 15:29N 46°12' W 123°57'0 0.0
2017-Oct-03 15:01N 46°12' W 123°57'0 0.0
2017-Oct-03 14:00N 46°12' W 123°57'0 0.0
2017-Oct-03 13:30N 46°12' W 123°57'0 0.0
2017-Oct-03 13:01N 46°12' W 123°57'0 0.0
2017-Oct-03 12:31N 46°12' W 123°57'0 0.0
2017-Oct-03 12:00N 46°12' W 123°57'0 0.0
2017-Oct-03 11:31N 46°12' W 123°57'0 0.0
2017-Oct-03 11:00N 46°12' W 123°57'0 0.0
2017-Oct-03 10:30N 46°12' W 123°57'0 0.0
2017-Oct-03 10:01N 46°12' W 123°57'0 0.0
2017-Oct-03 09:30N 46°12' W 123°57'0 0.0
2017-Oct-03 09:01N 46°12' W 123°57'0 0.0
2017-Oct-03 08:30N 46°12' W 123°57'0 0.0
2017-Oct-03 08:00N 46°12' W 123°57'0 0.0
2017-Oct-03 07:31N 46°12' W 123°57'0 0.0
2017-Oct-03 07:00N 46°12' W 123°57'0 0.0
2017-Oct-03 06:30N 46°12' W 123°57'0 0.0
2017-Oct-03 06:00N 46°12' W 123°57'0 0.0
2017-Oct-03 05:31N 46°12' W 123°57'0 0.0
2017-Oct-03 05:01N 46°12' W 123°57'0 0.0
2017-Oct-03 04:31N 46°12' W 123°57'0 0.0
2017-Oct-03 04:01N 46°12' W 123°57'0 0.0
2017-Oct-03 03:30N 46°12' W 123°57'0 0.0
2017-Oct-03 03:00N 46°12' W 123°57'0 0.0
2017-Oct-03 02:30N 46°12' W 123°57'0 0.0
2017-Oct-03 02:00N 46°12' W 123°57'0 0.0
2017-Oct-03 01:23N 46°12' W 123°57'0 0.0
2017-Oct-03 01:00N 46°12' W 123°57'0 0.0
2017-Oct-03 00:31N 46°12' W 123°57'0 0.0
2017-Oct-03 00:01N 46°12' W 123°57'0 0.0
2017-Oct-02 23:31N 46°12' W 123°57'0 0.0
2017-Oct-02 23:01N 46°12' W 123°57'1 3.0
2017-Oct-02 22:31N 46°12' W 123°55'4 9.0
2017-Oct-02 22:00N 46°12' W 123°48'0 0.0
2017-Oct-02 21:30N 46°12' W 123°48'2 4.5
2017-Oct-02 21:01N 46°11' W 123°52'0 0.0
2017-Oct-02 20:31N 46°11' W 123°52'2 4.7
2017-Oct-02 20:01N 46°12' W 123°48'0 0.1
2017-Oct-02 19:31N 46°12' W 123°48'0 0.0
2017-Oct-02 19:00N 46°12' W 123°48'2 4.4
2017-Oct-02 18:30N 46°11' W 123°51'0 0.4
2017-Oct-02 18:01N 46°11' W 123°52'4 7.7
2017-Oct-02 17:30N 46°12' W 123°57'0 0.0
2017-Oct-02 17:00N 46°12' W 123°57'612.1
2017-Oct-02 16:30N 46°12' W 123°48'2 4.8
2017-Oct-02 16:00N 46°11' W 123°52'4 7.7
2017-Oct-02 15:30N 46°12' W 123°57'0 0.0
2017-Oct-02 15:00N 46°12' W 123°57'0 0.0
2017-Oct-02 14:30N 46°12' W 123°57'0 0.0
2017-Oct-02 13:39N 46°12' W 123°57'0 0.0
2017-Oct-02 13:30N 46°12' W 123°57'0 0.0
2017-Oct-02 13:00N 46°12' W 123°57'0 0.0
2017-Oct-02 12:30N 46°12' W 123°57'0 0.0
2017-Oct-02 12:00N 46°12' W 123°57'0 0.0
2017-Oct-02 11:30N 46°12' W 123°57'0 0.0
2017-Oct-02 11:00N 46°12' W 123°57'0 0.0
2017-Oct-02 10:30N 46°12' W 123°57'0 0.0
2017-Oct-02 10:00N 46°12' W 123°57'0 0.0
2017-Oct-02 09:30N 46°12' W 123°57'0 0.0
2017-Oct-02 09:00N 46°12' W 123°57'0 0.0
2017-Oct-02 08:30N 46°12' W 123°57'0 0.0
2017-Oct-02 08:01N 46°12' W 123°57'0 0.0
2017-Oct-02 07:30N 46°12' W 123°57'0 0.0
2017-Oct-02 07:00N 46°12' W 123°57'0 0.0
2017-Oct-02 06:30N 46°12' W 123°57'0 0.0
2017-Oct-02 06:00N 46°12' W 123°57'0 0.0
2017-Oct-02 05:30N 46°12' W 123°57'0 0.0
2017-Oct-02 04:56N 46°12' W 123°57'0 0.0
2017-Oct-02 04:30N 46°12' W 123°57'0 0.0
2017-Oct-02 04:01N 46°12' W 123°57'0 0.0
2017-Oct-02 03:30N 46°12' W 123°57'0 0.0
2017-Oct-02 03:00N 46°12' W 123°57'0 0.0
2017-Oct-02 02:30N 46°12' W 123°57'0 0.0
2017-Oct-02 02:00N 46°12' W 123°57'0 0.0
2017-Oct-02 01:30N 46°12' W 123°57'0 0.0
2017-Oct-02 01:01N 46°12' W 123°57'0 0.0
2017-Oct-02 00:31N 46°12' W 123°57'0 0.0
2017-Oct-02 00:00N 46°12' W 123°57'0 0.0
2017-Oct-01 23:30N 46°12' W 123°57'0 0.0
2017-Oct-01 23:00N 46°12' W 123°57'0 0.0
2017-Oct-01 22:30N 46°12' W 123°57'0 0.0
2017-Oct-01 21:26N 46°12' W 123°57'0 0.0
2017-Oct-01 21:01N 46°12' W 123°57'0 0.0
2017-Oct-01 20:31N 46°12' W 123°57'0 0.0
2017-Oct-01 20:00N 46°12' W 123°57'0 0.0
2017-Oct-01 19:31N 46°12' W 123°57'0 0.0
2017-Oct-01 19:01N 46°12' W 123°57'0 0.0
2017-Oct-01 18:31N 46°12' W 123°57'0 0.0
2017-Oct-01 18:01N 46°12' W 123°57'0 0.0
2017-Oct-01 17:31N 46°12' W 123°57'0 0.0
2017-Oct-01 17:01N 46°12' W 123°57'0 0.0
2017-Oct-01 16:28N 46°12' W 123°57'0 0.0
2017-Oct-01 16:00N 46°12' W 123°57'0 0.0
2017-Oct-01 15:31N 46°12' W 123°57'0 0.0
2017-Oct-01 15:01N 46°12' W 123°57'0 0.0
2017-Oct-01 14:30N 46°12' W 123°57'0 0.0
2017-Oct-01 14:00N 46°12' W 123°57'0 0.0
2017-Oct-01 13:31N 46°12' W 123°57'0 0.0
2017-Oct-01 13:00N 46°12' W 123°57'0 0.0
2017-Oct-01 12:30N 46°12' W 123°57'0 0.0
2017-Oct-01 12:00N 46°12' W 123°57'0 0.0
2017-Oct-01 11:30N 46°12' W 123°57'0 0.0
2017-Oct-01 11:00N 46°12' W 123°57'0 0.0
2017-Oct-01 10:31N 46°12' W 123°57'0 0.0
2017-Oct-01 10:00N 46°12' W 123°57'0 0.0
2017-Oct-01 09:30N 46°12' W 123°57'0 0.0
2017-Oct-01 09:01N 46°12' W 123°57'0 0.0
2017-Oct-01 08:30N 46°12' W 123°57'0 0.0
2017-Oct-01 08:00N 46°12' W 123°57'0 0.0
2017-Oct-01 07:30N 46°12' W 123°57'0 0.0
2017-Oct-01 07:00N 46°12' W 123°57'0 0.0
2017-Oct-01 06:30N 46°12' W 123°57'0 0.0
2017-Oct-01 06:00N 46°12' W 123°57'0 0.0
2017-Oct-01 05:31N 46°12' W 123°57'0 0.0
2017-Oct-01 05:00N 46°12' W 123°57'0 0.0
2017-Oct-01 04:30N 46°12' W 123°57'0 0.0
2017-Oct-01 04:00N 46°12' W 123°57'0 0.0
2017-Oct-01 03:31N 46°12' W 123°57'0 0.0
2017-Oct-01 03:00N 46°12' W 123°57'0 0.0
2017-Sep-30 02:01N 46°12' W 123°57'0 0.0
2017-Sep-30 01:31N 46°12' W 123°57'0 0.0
2017-Sep-30 01:00N 46°12' W 123°57'0 0.0
2017-Sep-30 00:31N 46°12' W 123°57'0 0.0
2017-Sep-30 00:00N 46°12' W 123°57'0 0.0
2017-Sep-29 23:31N 46°12' W 123°57'0 0.0
2017-Sep-29 23:00N 46°12' W 123°57'0 0.0
2017-Sep-29 22:30N 46°12' W 123°57'0 0.0
2017-Sep-29 22:01N 46°12' W 123°57'0 0.0
2017-Sep-29 21:30N 46°12' W 123°57'0 0.0
2017-Sep-29 21:00N 46°12' W 123°57'0 0.0
2017-Sep-29 20:31N 46°12' W 123°57'0 0.0
2017-Sep-29 20:00N 46°12' W 123°57'0 0.0
2017-Sep-29 19:31N 46°12' W 123°57'0 0.0
2017-Sep-29 19:00N 46°12' W 123°57'0 0.0
2017-Sep-29 18:31N 46°12' W 123°57'0 0.0
2017-Sep-29 18:00N 46°12' W 123°57'0 0.0
2017-Sep-29 15:42N 46°12' W 123°57'0 0.0
2017-Sep-29 15:30N 46°12' W 123°57'0 0.0
2017-Sep-29 15:00N 46°12' W 123°57'0 0.0
2017-Sep-29 14:30N 46°12' W 123°57'0 0.0
2017-Sep-29 14:00N 46°12' W 123°57'0 0.0
2017-Sep-29 13:30N 46°12' W 123°57'0 0.0
2017-Sep-29 13:00N 46°12' W 123°57'0 0.0
2017-Sep-29 12:30N 46°12' W 123°57'0 0.0
2017-Sep-29 12:00N 46°12' W 123°57'0 0.0
2017-Sep-29 11:30N 46°12' W 123°57'0 0.0
2017-Sep-29 11:00N 46°12' W 123°57'0 0.0
2017-Sep-29 10:30N 46°12' W 123°57'0 0.0
2017-Sep-29 10:00N 46°12' W 123°57'0 0.0
2017-Sep-29 09:31N 46°12' W 123°57'0 0.0
2017-Sep-29 09:00N 46°12' W 123°57'0 0.0
2017-Sep-29 08:30N 46°12' W 123°57'0 0.0
2017-Sep-29 08:00N 46°12' W 123°57'0 0.0
2017-Sep-29 07:30N 46°12' W 123°57'0 0.0
2017-Sep-29 07:01N 46°12' W 123°57'0 0.0
2017-Sep-29 06:30N 46°12' W 123°57'0 0.0
2017-Sep-29 06:00N 46°12' W 123°57'0 0.0
2017-Sep-29 05:31N 46°12' W 123°57'0 0.0
2017-Sep-29 05:01N 46°12' W 123°57'0 0.0
2017-Sep-29 04:30N 46°12' W 123°57'0 0.0
2017-Sep-29 04:00N 46°12' W 123°57'0 0.0
2017-Sep-29 03:30N 46°12' W 123°57'0 0.0
2017-Sep-29 03:00N 46°12' W 123°57'0 0.0
2017-Sep-29 02:30N 46°12' W 123°57'0 0.0
2017-Sep-29 02:00N 46°12' W 123°57'0 0.0
2017-Sep-29 01:30N 46°12' W 123°57'611.3
2017-Sep-29 01:00N 46°16' W 124°03'1 1.6
2017-Sep-29 00:30N 46°16' W 124°04'0 0.6
2017-Sep-29 00:00N 46°16' W 124°04'1 2.3
2017-Sep-28 23:30N 46°15' W 124°06'0 0.4
2017-Sep-28 23:00N 46°16' W 124°06'2 2.0
2017-Sep-28 22:14N 46°15' W 124°08'1 4.2
2017-Sep-28 22:01N 46°15' W 124°07'4 8.7
2017-Sep-28 21:31N 46°15' W 124°00'3 6.8
2017-Sep-28 21:00N 46°12' W 123°57'4 7.8
2017-Sep-28 20:30N 46°15' W 124°00'1 2.2
2017-Sep-28 20:00N 46°16' W 124°02'3 5.9
2017-Sep-28 19:30N 46°14' W 123°58'1 2.3
2017-Sep-28 19:00N 46°13' W 123°57'4 8.9
2017-Sep-28 18:30N 46°11' W 123°52'0 0.0
2017-Sep-28 18:00N 46°11' W 123°52'0 0.4
2017-Sep-28 17:30N 46°11' W 123°51'4 7.4
2017-Sep-28 17:00N 46°13' W 123°56'714.1
2017-Sep-28 16:29N 46°16' W 124°06'0 0.7
2017-Sep-28 16:01N 46°15' W 124°06'0 0.9
2017-Sep-28 15:31N 46°15' W 124°07'1 1.7
2017-Sep-28 15:01N 46°15' W 124°06'5 9.5
2017-Sep-28 14:30N 46°14' W 123°59'2 4.8
2017-Sep-28 14:00N 46°12' W 123°57'0 0.0
2017-Sep-28 13:30N 46°12' W 123°57'0 0.0
2017-Sep-28 13:00N 46°12' W 123°57'0 0.0
2017-Sep-28 12:31N 46°12' W 123°57'0 0.0
2017-Sep-28 12:01N 46°12' W 123°57'0 0.0
2017-Sep-28 11:31N 46°12' W 123°57'0 0.0
2017-Sep-28 11:01N 46°12' W 123°57'0 0.0
2017-Sep-28 10:31N 46°12' W 123°57'0 0.0
2017-Sep-28 10:01N 46°12' W 123°57'0 0.0
2017-Sep-28 09:31N 46°12' W 123°57'0 0.0
2017-Sep-28 09:00N 46°12' W 123°57'0 0.0
2017-Sep-28 08:30N 46°12' W 123°57'0 0.0
2017-Sep-28 08:01N 46°12' W 123°57'0 0.0
2017-Sep-28 07:31N 46°12' W 123°57'0 0.0
2017-Sep-28 07:01N 46°12' W 123°57'0 0.0
2017-Sep-28 06:31N 46°12' W 123°57'0 0.0
2017-Sep-28 06:01N 46°12' W 123°57'0 0.0
2017-Sep-28 05:30N 46°12' W 123°57'0 0.0
2017-Sep-28 05:01N 46°12' W 123°57'0 0.0
2017-Sep-28 04:27N 46°12' W 123°57'0 0.0
2017-Sep-28 04:01N 46°12' W 123°57'0 0.0
2017-Sep-28 03:30N 46°12' W 123°57'0 0.0
2017-Sep-28 03:01N 46°12' W 123°57'0 0.0
2017-Sep-28 02:29N 46°12' W 123°57'0 0.0
2017-Sep-28 02:01N 46°12' W 123°57'0 0.0
2017-Sep-28 01:31N 46°12' W 123°57'0 0.0
2017-Sep-28 01:01N 46°12' W 123°57'0 0.0
2017-Sep-28 00:30N 46°12' W 123°57'0 0.0
2017-Sep-28 00:01N 46°12' W 123°57'0 0.2
2017-Sep-27 23:30N 46°12' W 123°57'611.7
2017-Sep-27 23:00N 46°15' W 124°04'611.7
2017-Sep-27 22:30N 46°12' W 123°57'0 0.0
2017-Sep-27 22:00N 46°12' W 123°57'0 0.0
2017-Sep-27 21:30N 46°12' W 123°57'0 0.0
2017-Sep-27 21:00N 46°12' W 123°57'0 0.0
2017-Sep-27 20:30N 46°12' W 123°57'510.1
2017-Sep-27 20:00N 46°15' W 124°03'1 2.6
2017-Sep-27 19:30N 46°16' W 124°04'0 0.4
2017-Sep-27 19:00N 46°16' W 124°04'0 0.8
2017-Sep-27 18:30N 46°16' W 124°04'1 1.2
2017-Sep-27 18:00N 46°15' W 124°04'1 1.0
2017-Sep-27 17:30N 46°15' W 124°05'1 2.0
2017-Sep-27 17:00N 46°15' W 124°04'0 0.3
2017-Sep-27 16:30N 46°16' W 124°04'1 0.8
2017-Sep-27 15:50N 46°15' W 124°03'0 0.9
2017-Sep-27 15:30N 46°16' W 124°03'1 2.6
2017-Sep-27 15:00N 46°15' W 124°05'2 4.6
2017-Sep-27 14:30N 46°15' W 124°02'4 8.8
2017-Sep-27 14:00N 46°12' W 123°57'0 0.0
2017-Sep-27 13:30N 46°12' W 123°57'0 0.0
2017-Sep-27 13:00N 46°12' W 123°57'0 0.0
2017-Sep-27 12:30N 46°12' W 123°57'0 0.0
2017-Sep-27 12:00N 46°12' W 123°57'0 0.0
2017-Sep-27 11:30N 46°12' W 123°57'0 0.0
2017-Sep-27 11:00N 46°12' W 123°57'0 0.0
2017-Sep-27 10:30N 46°12' W 123°57'0 0.0
2017-Sep-27 09:48N 46°12' W 123°57'0 0.0
2017-Sep-27 09:30N 46°12' W 123°57'0 0.0
2017-Sep-27 09:00N 46°12' W 123°57'0 0.0
2017-Sep-27 08:30N 46°12' W 123°57'0 0.0
2017-Sep-27 08:00N 46°12' W 123°57'0 0.0
2017-Sep-27 07:30N 46°12' W 123°57'0 0.0
2017-Sep-27 06:42N 46°12' W 123°57'0 0.0
2017-Sep-27 06:30N 46°12' W 123°57'0 0.0
2017-Sep-27 06:00N 46°12' W 123°57'0 0.0
2017-Sep-27 05:30N 46°12' W 123°57'0 0.0
2017-Sep-27 05:00N 46°12' W 123°57'0 0.0
2017-Sep-27 04:30N 46°12' W 123°57'0 0.0
2017-Sep-27 04:00N 46°12' W 123°57'0 0.0
2017-Sep-27 03:30N 46°12' W 123°57'0 0.0
2017-Sep-27 03:00N 46°12' W 123°57'0 0.0
2017-Sep-27 02:30N 46°12' W 123°57'0 0.0
2017-Sep-27 02:00N 46°12' W 123°57'0 0.0
2017-Sep-27 01:30N 46°12' W 123°57'0 0.0
2017-Sep-27 00:48N 46°12' W 123°57'0 0.0
2017-Sep-27 00:30N 46°12' W 123°57'0 0.0
2017-Sep-27 00:00N 46°12' W 123°57'0 0.0
2017-Sep-26 23:30N 46°12' W 123°57'2 2.4
2017-Sep-26 22:49N 46°14' W 123°58'413.2
2017-Sep-26 22:30N 46°15' W 124°04'3 6.7
2017-Sep-26 22:00N 46°15' W 123°59'3 5.6
2017-Sep-26 21:30N 46°12' W 123°57'0 0.0
2017-Sep-26 21:00N 46°12' W 123°57'0 0.0
2017-Sep-26 20:30N 46°12' W 123°57'0 0.0
2017-Sep-26 19:46N 46°12' W 123°57'0 0.0
2017-Sep-26 19:30N 46°12' W 123°57'0 0.0
2017-Sep-26 19:00N 46°12' W 123°57'0 0.0
2017-Sep-26 18:30N 46°12' W 123°57'1 1.1
2017-Sep-26 18:01N 46°13' W 123°57'4 7.9
2017-Sep-26 17:30N 46°15' W 124°02'4 8.9
2017-Sep-26 17:01N 46°12' W 123°57'4 8.0
2017-Sep-26 16:30N 46°11' W 123°51'0 0.0
2017-Sep-26 16:00N 46°11' W 123°51'612.0
2017-Sep-26 15:31N 46°14' W 123°59'3 5.2
2017-Sep-26 15:00N 46°15' W 124°02'5 9.9
2017-Sep-26 14:30N 46°12' W 123°57'0 0.0
2017-Sep-26 13:47N 46°12' W 123°57'0 0.0
2017-Sep-26 13:30N 46°12' W 123°57'0 0.0
2017-Sep-26 13:01N 46°12' W 123°57'0 0.0
2017-Sep-26 12:30N 46°12' W 123°57'0 0.0
2017-Sep-26 12:01N 46°12' W 123°57'0 0.0
2017-Sep-26 11:30N 46°12' W 123°57'0 0.0
2017-Sep-26 11:00N 46°12' W 123°57'0 0.0
2017-Sep-26 10:30N 46°12' W 123°57'0 0.0
2017-Sep-26 10:00N 46°12' W 123°57'0 0.0
2017-Sep-26 09:30N 46°12' W 123°57'0 0.0
2017-Sep-26 09:00N 46°12' W 123°57'0 0.0
2017-Sep-26 08:30N 46°12' W 123°57'0 0.0
2017-Sep-26 08:00N 46°12' W 123°57'0 0.0
2017-Sep-26 07:30N 46°12' W 123°57'0 0.0
2017-Sep-26 07:00N 46°12' W 123°57'0 0.0
2017-Sep-26 06:30N 46°12' W 123°57'0 0.0
2017-Sep-26 06:00N 46°12' W 123°57'0 0.0
2017-Sep-26 05:30N 46°12' W 123°57'0 0.0
2017-Sep-26 05:00N 46°12' W 123°57'0 0.0
2017-Sep-26 04:12N 46°12' W 123°57'0 0.0
2017-Sep-26 04:00N 46°12' W 123°57'0 0.0
2017-Sep-26 03:30N 46°12' W 123°57'0 0.0
2017-Sep-26 03:00N 46°12' W 123°57'0 0.0
2017-Sep-26 02:30N 46°12' W 123°57'0 0.0
2017-Sep-26 02:00N 46°12' W 123°57'0 0.0
2017-Sep-26 01:30N 46°12' W 123°57'0 0.0
2017-Sep-26 01:00N 46°12' W 123°57'0 0.0
2017-Sep-26 00:30N 46°12' W 123°57'0 0.0
2017-Sep-26 00:00N 46°12' W 123°57'0 0.0
2017-Sep-25 23:30N 46°12' W 123°57'0 0.0
2017-Sep-25 23:00N 46°12' W 123°57'0 0.0
2017-Sep-25 22:30N 46°12' W 123°57'0 0.0
2017-Sep-25 22:00N 46°12' W 123°57'0 0.0
2017-Sep-25 21:30N 46°12' W 123°57'0 0.0
2017-Sep-25 21:00N 46°12' W 123°57'611.4
2017-Sep-25 20:30N 46°16' W 124°04'3 5.3
2017-Sep-25 20:00N 46°15' W 123°60'1 2.0
2017-Sep-25 19:30N 46°15' W 123°59'3 6.1
2017-Sep-25 19:00N 46°15' W 124°03'1 1.7
2017-Sep-25 18:30N 46°16' W 124°04'0 0.3
2017-Sep-25 18:00N 46°15' W 124°04'0 0.3
2017-Sep-25 17:30N 46°15' W 124°04'1 1.4
2017-Sep-25 17:00N 46°15' W 124°05'1 2.6
2017-Sep-25 16:30N 46°15' W 124°03'0 0.3
2017-Sep-25 16:00N 46°15' W 124°03'0 0.4
2017-Sep-25 15:30N 46°16' W 124°03'0 0.4
2017-Sep-25 15:00N 46°15' W 124°03'3 6.9
2017-Sep-25 14:31N 46°14' W 123°59'2 4.1
2017-Sep-25 14:01N 46°12' W 123°57'0 0.0
2017-Sep-25 13:31N 46°12' W 123°57'0 0.0
2017-Sep-25 13:01N 46°12' W 123°57'0 0.0
2017-Sep-25 12:25N 46°12' W 123°57'0 0.0
2017-Sep-25 12:01N 46°12' W 123°57'0 0.0
2017-Sep-25 11:31N 46°12' W 123°57'0 0.0
2017-Sep-25 11:01N 46°12' W 123°57'0 0.0
2017-Sep-25 10:31N 46°12' W 123°57'0 0.0
2017-Sep-25 10:01N 46°12' W 123°57'0 0.0
2017-Sep-25 09:31N 46°12' W 123°57'0 0.0
2017-Sep-25 09:01N 46°12' W 123°57'0 0.0
2017-Sep-25 08:16N 46°12' W 123°57'0 0.0
2017-Sep-25 08:00N 46°12' W 123°57'0 0.0
2017-Sep-25 07:30N 46°12' W 123°57'0 0.0
2017-Sep-25 07:00N 46°12' W 123°57'0 0.0
2017-Sep-25 06:30N 46°12' W 123°57'0 0.0
2017-Sep-25 06:01N 46°12' W 123°57'0 0.0
2017-Sep-25 05:30N 46°12' W 123°57'0 0.0
2017-Sep-25 05:00N 46°12' W 123°57'0 0.0
2017-Sep-25 04:30N 46°12' W 123°57'0 0.0
2017-Sep-25 03:41N 46°12' W 123°57'0 0.0
2017-Sep-25 03:30N 46°12' W 123°57'0 0.0
2017-Sep-25 03:00N 46°12' W 123°57'0 0.0
2017-Sep-25 02:27N 46°12' W 123°57'0 0.0
2017-Sep-25 02:01N 46°12' W 123°57'0 0.0
2017-Sep-25 01:28N 46°12' W 123°57'0 0.0
2017-Sep-25 01:01N 46°12' W 123°57'0 0.0
2017-Sep-25 00:31N 46°12' W 123°57'0 0.0
2017-Sep-25 00:01N 46°12' W 123°57'0 0.0
2017-Sep-24 23:31N 46°12' W 123°57'0 0.0
2017-Sep-24 23:01N 46°12' W 123°57'0 0.0
2017-Sep-24 22:31N 46°12' W 123°57'0 0.0
2017-Sep-24 22:01N 46°12' W 123°57'0 0.0
2017-Sep-24 21:31N 46°12' W 123°57'0 0.0
2017-Sep-24 21:01N 46°12' W 123°57'0 0.0
2017-Sep-24 20:31N 46°12' W 123°57'0 0.0
2017-Sep-24 20:01N 46°12' W 123°57'  

Dump ship's entire track history